Terminal Aerodrome Forecast
Issued by NWS Charleston, WV

Current Version | Previous Version | Graphics & Text | Print | Product List | Glossary On
Versions: 1 2 3 4 5 6 7 8 9 10 11 12 13 14 15 16 17 18 19 20 21 22 23 24 25 26 27
869
FTUS41 KRLX 220240 AAA
TAFPKB
TAF AMD
KPKB 220240Z 2203/2224 19005KT P6SM -SHRA BKN040
     FM220400 19004KT P6SM BKN030
     FM220800 25005KT P6SM BKN020
     FM221400 27005KT P6SM BKN035
     FM221700 27006KT P6SM SCT140=

USA.gov is the U.S. government's official web portal to all federal, state and local government web resources and services.